Kurunegala, Sri Lanka

3:08 PM IST on September 02, 2014 (GMT +0530)
Bandaranaike International | Change Station
CLOSE
Current Station
Airport
Location: Katunayake,
Elevation: 26 ft
Nearby Weather Stations

Elev 26 ft 7.18 °N, 79.88 °E | Updated 28 minutes ago

Mostly Cloudy
Mostly Cloudy
84 °F
Feels Like 92 °F
N
10
Wind Variable Wind from SSW

Today
High -- | Low -- °F
--% Chance of Precip.
Yesterday
High -- | Low -- °F
Precip. -- in
6:00 AM 6:15 PM
Waxing Crescent, 49% visible
Pressure 29.77 in
Visibility 6.2 miles
Clouds Few 1600 ft
Few 1800 ft
Mostly Cloudy 9000 ft
Heat Index 92 °F
Dew Point 75 °F
Humidity 74%
Rainfall 0.00 in
Snow Depth Not available.
UV 5 out of 12
Pollen Not available.
Air Quality Not available.
Flu Activity Not available.
METAR VCBI 020910Z 21009KT 9999 FEW016 FEW018CB BKN090 29/24 Q1008 NOSIG

More Conditions Fewer Conditions

Pressure 29.77 in
Visibility 6.2 miles
Clouds Few 1600 ft
Few 1800 ft
Mostly Cloudy 9000 ft
Heat Index 92 °F
Dew Point 75 °F
Humidity 74%
Rainfall 0.00 in
Snow Depth Not available.
UV 5 out of 12
Pollen Not available.
Air Quality Not available.
Flu Activity Not available.
METAR VCBI 020910Z 21009KT 9999 FEW016 FEW018CB BKN090 29/24 Q1008 NOSIG

More Conditions Fewer Conditions

10-Day Weather Forecast

Almanac

Astronomy

Sep. 02, 2014 Rise Set
Actual Time 6:00 AM IST 6:15 PM IST
Civil Twilight 5:39 AM IST 6:36 PM IST
Nautical Twilight 5:15 AM IST 7:01 PM IST
Astronomical Twilight 4:50 AM IST 7:25 PM IST
Moon 11:58 AM IST 12:04 AM IST (9/3)
Length of Visible Light 12h 57m
Length of Day
12h 14m
Tomorrow will be 0m 24s shorter.
Waxing Crescent, 49% of the Moon is Illuminated
Today
Waxing Crescent
Sep 2
First Quarter
Sep 8
Full
Sep 15
Last Quarter
Sep 24
New

Yesterday's Extremes

Country Highs Country Lows

Community

WunderPhotos

Upload Photos

1,749,587 photos uploaded!

WunderBlogs® & News

Nearby

Snow Depth

Not available.

Earthquake Activity

City Distance Mag. Time & Date
No recent earthquake activity has been reported nearby.
Minimum magnitude displayed is 2.5.

Coastal Water Temperatures

Place Temperature
No Stations Reporting

Nearby Weather Stations